Time;durP1;ratioP1;P1;durP2;ratioP2;P2;SDS_P1;SDS_P2;PMS_P1;PMS_P2;Temp;Humidity;BMP_temperature;BMP_pressure;BME280_temperature;BME280_humidity;BME280_pressure;Samples;Min_cycle;Max_cycle;Signal;HPM_P1;HPM_P2
2023/02/23 00:02:09;;;;;;;21.60;11.02;;;;;;;;;;5045593;28;20045;-83
2023/02/23 00:04:57;;;;;;;18.15;10.50;;;;;;;;;;5032463;28;20052;-83
2023/02/23 00:07:28;;;;;;;16.15;9.48;;;;;;;;;;5027356;28;20099;-82
2023/02/23 00:10:10;;;;;;;17.83;9.75;;;;;;;;;;5059268;28;20128;-82
2023/02/23 00:12:51;;;;;;;16.23;8.38;;;;;;;;;;5043739;28;20056;-82
2023/02/23 00:15:28;;;;;;;18.40;9.23;;;;;;;;;;5054905;28;20020;-82
2023/02/23 00:17:55;;;;;;;16.50;9.20;;;;;;;;;;5038658;28;20040;-82
2023/02/23 00:20:26;;;;;;;20.40;10.85;;;;;;;;;;5037011;28;20060;-82
2023/02/23 00:23:05;;;;;;;15.50;9.70;;;;;;;;;;5034543;28;20086;-82
2023/02/23 00:25:53;;;;;;;16.48;9.35;;;;;;;;;;5018583;28;20036;-82
2023/02/23 00:28:29;;;;;;;15.50;8.73;;;;;;;;;;5052865;28;20391;-82
2023/02/23 00:30:56;;;;;;;15.52;9.65;;;;;;;;;;5043877;28;20026;-82
2023/02/23 00:33:22;;;;;;;17.30;9.40;;;;;;;;;;5039324;28;20032;-82
2023/02/23 00:35:49;;;;;;;19.35;10.05;;;;;;;;;;5068536;28;20082;-83
2023/02/23 00:38:17;;;;;;;14.63;8.65;;;;;;;;;;5055185;28;20044;-83
2023/02/23 00:40:58;;;;;;;15.95;9.55;;;;;;;;;;5053289;28;20051;-82
2023/02/23 00:43:32;;;;;;;15.20;9.07;;;;;;;;;;5056115;28;20024;-82
2023/02/23 00:45:58;;;;;;;16.85;9.48;;;;;;;;;;5041878;28;20047;-82
2023/02/23 00:48:32;;;;;;;17.13;9.60;;;;;;;;;;5057965;28;20055;-82
2023/02/23 00:51:07;;;;;;;15.88;8.90;;;;;;;;;;5058378;28;20028;-83
2023/02/23 00:53:36;;;;;;;16.45;8.85;;;;;;;;;;5038173;28;20364;-83
2023/02/23 00:59:07;;;;;;;15.40;8.55;;;;;;;;;;5057305;28;20039;-83
2023/02/23 01:01:33;;;;;;;19.23;9.38;;;;;;;;;;5049197;28;20029;-83
2023/02/23 01:04:03;;;;;;;16.02;9.70;;;;;;;;;;5057998;28;20102;-83
2023/02/23 01:06:32;;;;;;;18.90;10.15;;;;;;;;;;5066595;28;20681;-83
2023/02/23 01:09:09;;;;;;;17.60;8.35;;;;;;;;;;5041053;28;20080;-82
2023/02/23 01:11:35;;;;;;;14.20;8.27;;;;;;;;;;5016908;28;20032;-83
2023/02/23 01:14:04;;;;;;;12.95;8.05;;;;;;;;;;5024178;28;20468;-83
2023/02/23 01:16:33;;;;;;;15.25;8.05;;;;;;;;;;5019042;28;20037;-82
2023/02/23 01:19:04;;;;;;;16.95;9.82;;;;;;;;;;5018612;28;20078;-82
2023/02/23 01:21:37;;;;;;;14.52;8.82;;;;;;;;;;5009524;28;20147;-83
2023/02/23 01:24:04;;;;;;;15.38;8.38;;;;;;;;;;5013052;28;20034;-83
2023/02/23 01:26:35;;;;;;;16.95;9.05;;;;;;;;;;5015699;28;20038;-83
2023/02/23 01:29:17;;;;;;;16.27;9.10;;;;;;;;;;4978201;28;20460;-83
2023/02/23 01:31:46;;;;;;;16.73;9.13;;;;;;;;;;5003673;28;20061;-83
2023/02/23 01:34:13;;;;;;;14.82;7.50;;;;;;;;;;4997259;28;20052;-83
2023/02/23 01:36:43;;;;;;;14.82;8.48;;;;;;;;;;5012855;28;20483;-82
2023/02/23 01:39:33;;;;;;;17.05;10.35;;;;;;;;;;4996931;28;20038;-82
2023/02/23 01:42:12;;;;;;;17.60;8.73;;;;;;;;;;4997006;28;20499;-82
2023/02/23 01:44:40;;;;;;;14.40;7.97;;;;;;;;;;4982038;28;20042;-83
2023/02/23 01:47:07;;;;;;;15.38;8.48;;;;;;;;;;5019877;28;20063;-83
2023/02/23 01:49:34;;;;;;;14.25;8.05;;;;;;;;;;5030284;28;20028;-82
2023/02/23 01:52:04;;;;;;;14.52;8.10;;;;;;;;;;4997505;28;20025;-83
2023/02/23 01:54:43;;;;;;;15.53;8.73;;;;;;;;;;5012216;28;20037;-82
2023/02/23 01:57:14;;;;;;;16.05;7.88;;;;;;;;;;5011549;28;20041;-82
2023/02/23 01:59:45;;;;;;;17.27;8.35;;;;;;;;;;4993076;28;20029;-82
2023/02/23 02:02:12;;;;;;;15.75;8.38;;;;;;;;;;5006992;28;20034;-81
2023/02/23 02:04:50;;;;;;;14.70;8.73;;;;;;;;;;5012877;28;20087;-83
2023/02/23 02:07:33;;;;;;;13.43;7.60;;;;;;;;;;4995919;28;20029;-83
2023/02/23 02:12:57;;;;;;;14.15;8.45;;;;;;;;;;5039420;28;20387;-83
2023/02/23 02:15:29;;;;;;;14.57;7.47;;;;;;;;;;5014995;28;20029;-83
2023/02/23 02:18:17;;;;;;;13.52;7.78;;;;;;;;;;5004333;28;20025;-83
2023/02/23 02:21:05;;;;;;;17.30;8.55;;;;;;;;;;5037571;28;20025;-83
2023/02/23 02:23:55;;;;;;;17.20;8.70;;;;;;;;;;5035852;28;20113;-82
2023/02/23 02:26:37;;;;;;;16.00;7.93;;;;;;;;;;5050384;28;20047;-82
2023/02/23 02:29:25;;;;;;;17.05;8.05;;;;;;;;;;5054095;28;20143;-83
2023/02/23 02:32:13;;;;;;;13.77;7.43;;;;;;;;;;5073605;28;20051;-83
2023/02/23 02:34:58;;;;;;;13.63;7.13;;;;;;;;;;5071357;28;20115;-83
2023/02/23 02:37:25;;;;;;;16.75;7.28;;;;;;;;;;5059333;28;20032;-83
2023/02/23 02:40:13;;;;;;;13.27;7.60;;;;;;;;;;5036326;28;20033;-82
2023/02/23 02:42:49;;;;;;;13.23;7.35;;;;;;;;;;5047924;28;20515;-83
2023/02/23 02:45:36;;;;;;;13.25;7.63;;;;;;;;;;5055950;28;20047;-83
2023/02/23 02:48:21;;;;;;;12.35;7.05;;;;;;;;;;5056554;28;20410;-83
2023/02/23 02:51:18;;;;;;;14.57;8.30;;;;;;;;;;5056903;28;20028;-82
2023/02/23 02:53:56;;;;;;;12.40;7.15;;;;;;;;;;5050016;28;20028;-82
2023/02/23 02:56:26;;;;;;;12.80;7.22;;;;;;;;;;5056121;28;20056;-83
2023/02/23 02:58:56;;;;;;;11.85;6.85;;;;;;;;;;5061377;28;20032;-82
2023/02/23 04:17:43;;;;;;;14.88;7.40;;;;;;;;;;5056438;28;20067;-83
2023/02/23 04:20:18;;;;;;;14.48;7.30;;;;;;;;;;5041314;28;20049;-83
2023/02/23 04:22:45;;;;;;;14.13;7.20;;;;;;;;;;5042236;28;20140;-82
2023/02/23 04:25:19;;;;;;;15.82;7.70;;;;;;;;;;5060455;28;20025;-81
2023/02/23 04:27:45;;;;;;;13.70;7.22;;;;;;;;;;5041702;28;20495;-82
2023/02/23 04:30:14;;;;;;;13.05;7.22;;;;;;;;;;5039047;28;20045;-82
2023/02/23 04:32:40;;;;;;;14.02;8.00;;;;;;;;;;5028690;28;20021;-83
2023/02/23 04:35:12;;;;;;;13.75;7.57;;;;;;;;;;5055812;28;20058;-83
2023/02/23 04:37:47;;;;;;;14.82;7.72;;;;;;;;;;5039029;28;20037;-83
2023/02/23 04:40:23;;;;;;;13.15;7.55;;;;;;;;;;5031187;28;20062;-83
2023/02/23 04:43:06;;;;;;;14.07;7.78;;;;;;;;;;5047649;28;20029;-83
2023/02/23 04:45:36;;;;;;;14.52;7.75;;;;;;;;;;5056271;28;20041;-82
2023/02/23 04:48:02;;;;;;;14.23;7.53;;;;;;;;;;5038890;28;20029;-83
2023/02/23 04:50:29;;;;;;;14.40;8.35;;;;;;;;;;5037515;28;20100;-83
2023/02/23 04:53:01;;;;;;;15.30;8.15;;;;;;;;;;5056765;28;20096;-83
2023/02/23 04:55:36;;;;;;;14.70;8.00;;;;;;;;;;5036902;28;20124;-83
2023/02/23 05:01:32;;;;;;;15.35;7.10;;;;;;;;;;5045771;28;20151;-82
2023/02/23 05:04:02;;;;;;;12.57;7.35;;;;;;;;;;5015653;28;20049;-82
2023/02/23 05:06:33;;;;;;;13.70;8.02;;;;;;;;;;5014985;28;20095;-82
2023/02/23 05:09:02;;;;;;;15.73;8.52;;;;;;;;;;5016077;28;20050;-81
2023/02/23 05:11:32;;;;;;;18.65;9.05;;;;;;;;;;5020231;28;20087;-83
2023/02/23 05:13:58;;;;;;;15.00;8.52;;;;;;;;;;5029547;28;20022;-82
2023/02/23 05:22:37;;;;;;;;;;;;;;;;;;5015748;28;20511;-82
2023/02/23 05:31:04;;;;;;;18.83;9.00;;;;;;;;;;4997154;28;20079;-83
2023/02/23 05:33:41;;;;;;;16.75;8.32;;;;;;;;;;5016501;28;20029;-83
2023/02/23 05:36:11;;;;;;;15.00;8.27;;;;;;;;;;5017147;28;20032;-83
2023/02/23 05:38:38;;;;;;;16.52;9.32;;;;;;;;;;5013484;28;20125;-83
2023/02/23 05:41:10;;;;;;;17.23;8.88;;;;;;;;;;5030945;28;20041;-83
2023/02/23 05:43:44;;;;;;;16.67;9.05;;;;;;;;;;5037959;28;20028;-83
2023/02/23 05:46:23;;;;;;;15.75;8.45;;;;;;;;;;5040408;28;20021;-83
2023/02/23 05:48:55;;;;;;;17.75;9.48;;;;;;;;;;5039366;28;20031;-83
2023/02/23 05:51:24;;;;;;;17.83;8.63;;;;;;;;;;5060688;28;20078;-83
2023/02/23 05:53:52;;;;;;;15.55;8.88;;;;;;;;;;5069481;28;20025;-84
2023/02/23 05:56:21;;;;;;;15.65;8.75;;;;;;;;;;5055076;28;20017;-83
2023/02/23 05:59:01;;;;;;;15.73;9.27;;;;;;;;;;5057015;28;20079;-82
2023/02/23 06:01:31;;;;;;;18.70;9.75;;;;;;;;;;5070675;28;20028;-82
2023/02/23 06:04:13;;;;;;;18.88;10.40;;;;;;;;;;5064695;28;20040;-83
2023/02/23 06:06:46;;;;;;;18.27;9.25;;;;;;;;;;5073476;28;20039;-83
2023/02/23 06:09:14;;;;;;;19.20;9.85;;;;;;;;;;5088134;28;20035;-83
2023/02/23 06:11:50;;;;;;;;;;;;;;;;;;;;;
2023/02/23 06:14:25;;;;;;;16.60;10.75;;;;;;;;;;5077750;28;20112;-82
2023/02/23 06:17:10;;;;;;;20.25;11.40;;;;;;;;;;5075274;28;20029;-83
2023/02/23 06:19:44;;;;;;;17.35;9.55;;;;;;;;;;5076855;28;20044;-84
2023/02/23 06:22:10;;;;;;;20.27;10.65;;;;;;;;;;5057726;28;20031;-84
2023/02/23 06:24:37;;;;;;;16.20;10.52;;;;;;;;;;5061065;28;20047;-82
2023/02/23 06:27:04;;;;;;;17.23;10.25;;;;;;;;;;5046816;28;20056;-83
2023/02/23 06:29:30;;;;;;;17.83;9.80;;;;;;;;;;5057201;28;20027;-84
2023/02/23 06:31:57;;;;;;;16.20;10.02;;;;;;;;;;5074591;28;20284;-82
2023/02/23 06:34:24;;;;;;;14.10;8.30;;;;;;;;;;5062516;28;20024;-83
2023/02/23 06:36:52;;;;;;;17.05;9.38;;;;;;;;;;5060614;28;20089;-83
2023/02/23 06:39:20;;;;;;;13.68;8.20;;;;;;;;;;5071918;28;20032;-83
2023/02/23 06:41:47;;;;;;;15.80;9.15;;;;;;;;;;5057338;28;20074;-83
2023/02/23 06:44:21;;;;;;;13.68;7.78;;;;;;;;;;5061050;28;20033;-84
2023/02/23 06:46:50;;;;;;;16.58;8.88;;;;;;;;;;5063826;28;20108;-82
2023/02/23 06:49:23;;;;;;;14.02;8.13;;;;;;;;;;5062362;28;20032;-84
2023/02/23 06:51:51;;;;;;;16.40;8.63;;;;;;;;;;5072662;28;20032;-82
2023/02/23 06:54:18;;;;;;;17.02;9.35;;;;;;;;;;5048377;28;20346;-83
2023/02/23 06:56:45;;;;;;;14.18;8.75;;;;;;;;;;5060023;28;20044;-83
2023/02/23 06:59:25;;;;;;;18.77;9.60;;;;;;;;;;5058186;28;20367;-83
2023/02/23 07:01:51;;;;;;;19.08;10.40;;;;;;;;;;5062648;28;20052;-83
2023/02/23 07:04:27;;;;;;;20.92;11.57;;;;;;;;;;5059697;28;20028;-83
2023/02/23 07:06:56;;;;;;;21.98;12.27;;;;;;;;;;5081177;28;20036;-84
2023/02/23 07:09:26;;;;;;;20.25;12.00;;;;;;;;;;5051607;28;20050;-83
2023/02/23 07:11:59;;;;;;;19.63;11.20;;;;;;;;;;5008470;28;20046;-83
2023/02/23 07:14:25;;;;;;;22.27;13.90;;;;;;;;;;5027888;28;20036;-83
2023/02/23 07:16:52;;;;;;;26.10;12.13;;;;;;;;;;5009797;28;20028;-83
2023/02/23 07:19:23;;;;;;;20.40;11.95;;;;;;;;;;5006094;28;20030;-83
2023/02/23 07:21:53;;;;;;;22.08;13.32;;;;;;;;;;5022509;28;20034;-83
2023/02/23 07:24:22;;;;;;;24.80;12.98;;;;;;;;;;5011216;28;20059;-83
2023/02/23 07:26:48;;;;;;;24.50;13.57;;;;;;;;;;5032802;28;20034;-83
2023/02/23 07:29:18;;;;;;;29.70;14.82;;;;;;;;;;5024548;28;20329;-83
2023/02/23 07:31:45;;;;;;;27.05;14.32;;;;;;;;;;5036360;28;20406;-81
2023/02/23 07:34:13;;;;;;;24.77;15.25;;;;;;;;;;5014043;28;20373;-82
2023/02/23 07:36:40;;;;;;;28.50;16.50;;;;;;;;;;5015393;28;20391;-81
2023/02/23 07:39:06;;;;;;;24.58;15.40;;;;;;;;;;5023655;28;20284;-80
2023/02/23 07:41:34;;;;;;;28.08;15.32;;;;;;;;;;5018530;28;20562;-80
2023/02/23 07:44:01;;;;;;;24.67;14.27;;;;;;;;;;5020516;28;20483;-81
2023/02/23 07:46:56;;;;;;;25.63;15.23;;;;;;;;;;5039467;28;20116;-81
2023/02/23 07:49:27;;;;;;;25.63;14.98;;;;;;;;;;5044532;28;20037;-81
2023/02/23 07:51:56;;;;;;;23.50;15.40;;;;;;;;;;5014494;28;20495;-81
2023/02/23 07:54:24;;;;;;;24.45;15.18;;;;;;;;;;5016897;28;20492;-81
2023/02/23 07:56:51;;;;;;;31.00;17.65;;;;;;;;;;5033433;28;20069;-81
2023/02/23 07:59:35;;;;;;;29.15;18.10;;;;;;;;;;5039191;28;20113;-83
2023/02/23 08:02:05;;;;;;;29.13;16.70;;;;;;;;;;4994318;28;20035;-80
2023/02/23 08:04:35;;;;;;;25.52;14.73;;;;;;;;;;4998182;28;20040;-81
2023/02/23 08:07:03;;;;;;;26.52;15.43;;;;;;;;;;4978167;28;20019;-81
2023/02/23 08:09:31;;;;;;;24.42;14.85;;;;;;;;;;4995327;28;20064;-81
2023/02/23 08:11:58;;;;;;;28.08;15.25;;;;;;;;;;4997290;28;20033;-83
2023/02/23 08:14:35;;;;;;;24.77;15.43;;;;;;;;;;4997100;28;20026;-83
2023/02/23 08:17:21;;;;;;;28.90;15.95;;;;;;;;;;5012712;28;20026;-79
2023/02/23 08:22:54;;;;;;;29.38;18.20;;;;;;;;;;5014339;28;20040;-83
2023/02/23 08:25:26;;;;;;;27.52;15.68;;;;;;;;;;4997659;28;20018;-82
2023/02/23 08:28:05;;;;;;;26.47;14.33;;;;;;;;;;4997856;28;20022;-83
2023/02/23 08:30:32;;;;;;;28.25;16.50;;;;;;;;;;4997575;28;20088;-80
2023/02/23 08:33:09;;;;;;;32.05;15.93;;;;;;;;;;4997486;28;20036;-83
2023/02/23 08:35:35;;;;;;;28.13;15.40;;;;;;;;;;5026931;28;20038;-83
2023/02/23 08:38:02;;;;;;;22.77;13.57;;;;;;;;;;5018077;28;20034;-83
2023/02/23 08:40:28;;;;;;;24.77;14.52;;;;;;;;;;4997668;28;20033;-83
2023/02/23 08:43:16;;;;;;;29.75;14.82;;;;;;;;;;4996405;28;20042;-83
2023/02/23 08:45:43;;;;;;;23.42;13.73;;;;;;;;;;4931406;29;20066;-82
2023/02/23 08:48:12;;;;;;;24.15;14.60;;;;;;;;;;4937242;29;20035;-83
2023/02/23 08:50:47;;;;;;;21.33;13.82;;;;;;;;;;4934567;29;20032;-83
2023/02/23 08:53:24;;;;;;;25.35;14.73;;;;;;;;;;4976863;28;20081;-82
2023/02/23 08:56:11;;;;;;;22.85;13.80;;;;;;;;;;4969344;28;20077;-82
2023/02/23 08:58:37;;;;;;;23.45;13.65;;;;;;;;;;4995326;28;20030;-83
2023/02/23 09:01:07;;;;;;;23.25;14.60;;;;;;;;;;4970598;28;20564;-82
2023/02/23 09:03:44;;;;;;;22.30;13.68;;;;;;;;;;4975781;28;20101;-83
2023/02/23 09:06:15;;;;;;;19.77;12.52;;;;;;;;;;4961417;28;20034;-83
2023/02/23 09:08:44;;;;;;;19.42;13.27;;;;;;;;;;4986430;28;20043;-83
2023/02/23 09:11:11;;;;;;;25.20;13.18;;;;;;;;;;4978474;28;20089;-83
2023/02/23 09:13:41;;;;;;;22.55;13.75;;;;;;;;;;4988761;28;20022;-84
2023/02/23 09:16:14;;;;;;;22.25;13.98;;;;;;;;;;5008827;28;20451;-82
2023/02/23 09:18:47;;;;;;;19.63;12.02;;;;;;;;;;4996710;28;20492;-83
2023/02/23 09:21:25;;;;;;;26.23;14.55;;;;;;;;;;4970545;28;20019;-83
2023/02/23 09:23:54;;;;;;;31.25;17.27;;;;;;;;;;5051323;28;20108;-84
2023/02/23 09:26:23;;;;;;;24.15;13.02;;;;;;;;;;5055255;28;20487;-83
2023/02/23 09:28:50;;;;;;;24.98;15.18;;;;;;;;;;5056058;28;20040;-81
2023/02/23 09:31:21;;;;;;;20.55;12.45;;;;;;;;;;5050452;28;20036;-84
2023/02/23 09:33:50;;;;;;;20.88;13.18;;;;;;;;;;5055088;28;20120;-83
2023/02/23 09:36:26;;;;;;;22.83;13.43;;;;;;;;;;5048410;28;20040;-82
2023/02/23 09:38:57;;;;;;;19.75;12.23;;;;;;;;;;5051780;28;20029;-84
2023/02/23 09:41:29;;;;;;;20.95;12.60;;;;;;;;;;5030935;28;20029;-82
2023/02/23 09:44:03;;;;;;;22.42;12.88;;;;;;;;;;5016081;28;20060;-82
2023/02/23 09:46:47;;;;;;;19.60;12.45;;;;;;;;;;5016673;28;20056;-83
2023/02/23 09:49:27;;;;;;;19.90;12.20;;;;;;;;;;5035118;28;20172;-83
2023/02/23 09:52:04;;;;;;;22.02;11.60;;;;;;;;;;5034461;28;20386;-82
2023/02/23 09:54:33;;;;;;;21.67;12.35;;;;;;;;;;5016638;28;20139;-82
2023/02/23 09:57:06;;;;;;;18.48;12.02;;;;;;;;;;5015393;28;20040;-83
2023/02/23 09:59:47;;;;;;;20.83;12.38;;;;;;;;;;5013756;28;20025;-82
2023/02/23 10:02:31;;;;;;;20.25;12.98;;;;;;;;;;5032296;28;20038;-84
2023/02/23 10:05:15;;;;;;;18.58;12.65;;;;;;;;;;5007228;28;20491;-82
2023/02/23 10:08:02;;;;;;;21.30;12.30;;;;;;;;;;5017254;28;20239;-82
2023/02/23 10:10:47;;;;;;;21.77;12.57;;;;;;;;;;5029196;28;20134;-83
2023/02/23 10:13:20;;;;;;;26.27;13.65;;;;;;;;;;5058542;28;20063;-81
2023/02/23 10:15:54;;;;;;;20.52;12.38;;;;;;;;;;5054699;28;20089;-83
2023/02/23 10:18:49;;;;;;;17.33;11.43;;;;;;;;;;5045508;28;20564;-83
2023/02/23 10:21:41;;;;;;;19.02;11.32;;;;;;;;;;5067953;28;20405;-81
2023/02/23 10:24:26;;;;;;;21.33;11.80;;;;;;;;;;5056437;28;20031;-84
2023/02/23 10:26:53;;;;;;;20.40;11.95;;;;;;;;;;5057094;28;20031;-81
2023/02/23 10:29:27;;;;;;;23.08;12.07;;;;;;;;;;5040185;28;20059;-82
2023/02/23 10:32:11;;;;;;;18.17;11.55;;;;;;;;;;5057595;28;20115;-81
2023/02/23 10:34:39;;;;;;;19.73;11.50;;;;;;;;;;5056924;28;20111;-83
2023/02/23 10:37:24;;;;;;;22.73;12.90;;;;;;;;;;5076551;28;20028;-82
2023/02/23 10:39:54;;;;;;;21.50;12.98;;;;;;;;;;5040954;28;20419;-82
2023/02/23 10:42:22;;;;;;;23.00;12.25;;;;;;;;;;5053334;28;20025;-84
2023/02/23 10:44:54;;;;;;;21.25;12.95;;;;;;;;;;5052089;28;20029;-81
2023/02/23 10:47:24;;;;;;;19.13;12.95;;;;;;;;;;5039850;28;20024;-80
2023/02/23 10:50:00;;;;;;;18.52;11.80;;;;;;;;;;5056091;28;20570;-79
2023/02/23 10:52:33;;;;;;;18.08;12.13;;;;;;;;;;5073897;28;20458;-80
2023/02/23 10:55:06;;;;;;;19.65;12.85;;;;;;;;;;5056429;28;20485;-80
2023/02/23 10:57:36;;;;;;;20.67;11.77;;;;;;;;;;5039252;28;20498;-81
2023/02/23 11:00:25;;;;;;;20.77;12.50;;;;;;;;;;5072922;28;20386;-80
2023/02/23 11:03:05;;;;;;;19.77;12.80;;;;;;;;;;5055080;28;20521;-80
2023/02/23 11:05:35;;;;;;;17.40;12.23;;;;;;;;;;5055078;28;20486;-81
2023/02/23 11:08:12;;;;;;;20.98;12.48;;;;;;;;;;5073771;28;20401;-80
2023/02/23 11:10:39;;;;;;;20.50;13.10;;;;;;;;;;5051208;28;20118;-80
2023/02/23 11:13:21;;;;;;;20.48;13.20;;;;;;;;;;5069180;28;20530;-79
2023/02/23 11:16:11;;;;;;;20.52;12.88;;;;;;;;;;5054264;28;20040;-79
2023/02/23 11:19:04;;;;;;;20.98;13.63;;;;;;;;;;5031089;28;20550;-78
2023/02/23 11:21:37;;;;;;;20.58;12.57;;;;;;;;;;4948944;29;20047;-80
2023/02/23 11:24:15;;;;;;;21.50;13.45;;;;;;;;;;4932862;29;20043;-80
2023/02/23 11:26:47;;;;;;;23.73;14.82;;;;;;;;;;4947886;28;20043;-80
2023/02/23 11:29:23;;;;;;;;;;;;;;;;;;4920361;29;20064;-80
2023/02/23 11:31:58;;;;;;;19.83;12.70;;;;;;;;;;4920487;29;19910;-79
2023/02/23 11:34:39;;;;;;;23.95;13.43;;;;;;;;;;4921826;29;20063;-82
2023/02/23 11:37:25;;;;;;;20.95;13.48;;;;;;;;;;4928675;29;20475;-79
2023/02/23 11:40:03;;;;;;;19.98;13.45;;;;;;;;;;4918591;29;20128;-80
2023/02/23 11:42:40;;;;;;;23.38;14.57;;;;;;;;;;4921968;29;20302;-81
2023/02/23 11:45:19;;;;;;;26.02;15.60;;;;;;;;;;4926123;29;20529;-83
2023/02/23 11:48:07;;;;;;;22.95;13.43;;;;;;;;;;4927562;29;20574;-81
2023/02/23 11:50:48;;;;;;;21.98;13.10;;;;;;;;;;4972995;28;20113;-81
2023/02/23 11:53:16;;;;;;;22.70;14.38;;;;;;;;;;4953571;29;20027;-82
2023/02/23 11:55:56;;;;;;;22.10;14.57;;;;;;;;;;4980034;28;20026;-80
2023/02/23 11:58:48;;;;;;;25.73;14.90;;;;;;;;;;4986495;28;20090;-81
2023/02/23 12:01:22;;;;;;;25.80;15.60;;;;;;;;;;4955605;28;20030;-80
2023/02/23 12:03:57;;;;;;;21.90;14.73;;;;;;;;;;4978428;28;20027;-81
2023/02/23 12:06:34;;;;;;;25.73;14.18;;;;;;;;;;5057851;28;20035;-80
2023/02/23 12:09:05;;;;;;;22.63;13.43;;;;;;;;;;5056353;28;20040;-81
2023/02/23 12:11:36;;;;;;;21.48;14.52;;;;;;;;;;5075492;28;20090;-81
2023/02/23 12:14:22;;;;;;;22.65;13.90;;;;;;;;;;5055339;28;20024;-81
2023/02/23 12:16:56;;;;;;;26.33;14.25;;;;;;;;;;5073157;28;20052;-80
2023/02/23 12:19:46;;;;;;;21.42;13.68;;;;;;;;;;5045520;28;20059;-83
2023/02/23 12:22:20;;;;;;;19.90;12.80;;;;;;;;;;5067435;28;20098;-83
2023/02/23 12:24:47;;;;;;;20.25;12.85;;;;;;;;;;5073616;28;20036;-84
2023/02/23 12:27:16;;;;;;;21.67;13.55;;;;;;;;;;5055465;28;20112;-82
2023/02/23 12:29:56;;;;;;;21.42;13.48;;;;;;;;;;5033017;28;20037;-80
2023/02/23 12:32:41;;;;;;;19.85;13.05;;;;;;;;;;5056187;28;20029;-80
2023/02/23 12:35:18;;;;;;;23.15;13.75;;;;;;;;;;5053384;28;20033;-82
2023/02/23 12:38:05;;;;;;;23.40;14.10;;;;;;;;;;5056485;28;20021;-85
2023/02/23 12:40:44;;;;;;;22.77;12.85;;;;;;;;;;5056161;28;20055;-83
2023/02/23 12:43:18;;;;;;;22.40;14.05;;;;;;;;;;5057361;28;20029;-83
2023/02/23 12:45:47;;;;;;;;;;;;;;;;;;5057181;28;20032;-83
2023/02/23 12:48:32;;;;;;;22.67;13.52;;;;;;;;;;5058797;28;19908;-83
2023/02/23 12:51:17;;;;;;;23.27;13.50;;;;;;;;;;5058037;28;20402;-83
2023/02/23 12:53:48;;;;;;;21.48;13.30;;;;;;;;;;5058330;28;20032;-82
2023/02/23 12:56:20;;;;;;;21.27;12.50;;;;;;;;;;5057997;28;20028;-83
2023/02/23 12:59:02;;;;;;;19.75;12.38;;;;;;;;;;5056877;28;20111;-81
2023/02/23 13:01:36;;;;;;;20.70;12.05;;;;;;;;;;5056687;28;20174;-82
2023/02/23 13:04:23;;;;;;;21.33;13.63;;;;;;;;;;5057727;28;20028;-83
2023/02/23 13:07:15;;;;;;;23.67;13.00;;;;;;;;;;5055849;28;20035;-82
2023/02/23 13:10:03;;;;;;;22.42;13.63;;;;;;;;;;5055227;28;20029;-81
2023/02/23 13:13:01;;;;;;;23.20;13.90;;;;;;;;;;5055477;28;20060;-80
2023/02/23 13:15:45;;;;;;;22.77;14.05;;;;;;;;;;4976950;28;20034;-85
2023/02/23 13:18:26;;;;;;;22.52;13.82;;;;;;;;;;4995896;28;20042;-83
2023/02/23 13:21:05;;;;;;;22.20;14.50;;;;;;;;;;4977747;28;20035;-82
2023/02/23 13:24:01;;;;;;;23.85;14.70;;;;;;;;;;4993389;28;20054;-83
2023/02/23 13:26:38;;;;;;;21.67;14.77;;;;;;;;;;4980390;28;20041;-83
2023/02/23 13:29:12;;;;;;;20.33;13.52;;;;;;;;;;4990136;28;20117;-82
2023/02/23 13:31:41;;;;;;;;;;;;;;;;;;4994516;28;20089;-82
2023/02/23 13:34:25;;;;;;;22.98;12.95;;;;;;;;;;4993631;28;19918;-83
2023/02/23 13:36:55;;;;;;;18.17;12.15;;;;;;;;;;4978983;28;20057;-82
2023/02/23 13:39:24;;;;;;;19.98;12.02;;;;;;;;;;4997268;28;20393;-81
2023/02/23 13:41:59;;;;;;;19.20;12.10;;;;;;;;;;4994781;28;20125;-83
2023/02/23 13:44:38;;;;;;;19.23;12.50;;;;;;;;;;4991799;28;20046;-82
2023/02/23 13:47:32;;;;;;;19.23;12.57;;;;;;;;;;4961408;28;20097;-82
2023/02/23 13:50:21;;;;;;;17.75;11.18;;;;;;;;;;4995672;28;20448;-82
2023/02/23 13:52:57;;;;;;;18.80;11.77;;;;;;;;;;5074399;28;20028;-82
2023/02/23 13:55:32;;;;;;;19.73;12.35;;;;;;;;;;5056050;28;20028;-82
2023/02/23 13:58:19;;;;;;;19.13;11.70;;;;;;;;;;5072216;28;20039;-82
2023/02/23 14:01:05;;;;;;;18.73;11.73;;;;;;;;;;5075229;28;20029;-84
2023/02/23 14:03:36;;;;;;;22.40;12.63;;;;;;;;;;5058215;28;20032;-83
2023/02/23 14:06:09;;;;;;;19.23;12.23;;;;;;;;;;5057156;28;20029;-82
2023/02/23 14:08:51;;;;;;;20.98;12.57;;;;;;;;;;5056910;28;20092;-82
2023/02/23 14:11:38;;;;;;;19.83;12.50;;;;;;;;;;5064214;28;20506;-81
2023/02/23 14:14:05;;;;;;;20.48;12.88;;;;;;;;;;5058044;28;20033;-82
2023/02/23 14:16:36;;;;;;;20.58;11.80;;;;;;;;;;5074515;28;20074;-83
2023/02/23 14:22:08;;;;;;;19.40;11.88;;;;;;;;;;5069402;28;20078;-81
2023/02/23 14:24:36;;;;;;;21.98;12.38;;;;;;;;;;5041384;28;20068;-80
2023/02/23 14:27:23;;;;;;;18.20;10.93;;;;;;;;;;5056297;28;20040;-80
2023/02/23 14:30:12;;;;;;;17.85;11.35;;;;;;;;;;5017422;28;20065;-82
2023/02/23 14:32:43;;;;;;;18.45;11.38;;;;;;;;;;5033816;28;20384;-81
2023/02/23 14:35:30;;;;;;;19.98;10.95;;;;;;;;;;5023844;28;20426;-81
2023/02/23 14:38:01;;;;;;;19.95;11.05;;;;;;;;;;5016544;28;20021;-82
2023/02/23 14:40:35;;;;;;;20.92;12.70;;;;;;;;;;5013073;28;20548;-81
2023/02/23 14:43:06;;;;;;;18.40;11.02;;;;;;;;;;5016433;28;20083;-83
2023/02/23 14:45:38;;;;;;;16.05;10.80;;;;;;;;;;5016289;28;20084;-80
2023/02/23 14:48:11;;;;;;;17.95;10.85;;;;;;;;;;5013360;28;20024;-82
2023/02/23 14:50:38;;;;;;;16.48;10.18;;;;;;;;;;5029328;28;20025;-82
2023/02/23 14:53:15;;;;;;;21.13;11.45;;;;;;;;;;5015451;28;20026;-82
2023/02/23 14:55:47;;;;;;;16.60;11.48;;;;;;;;;;5005338;28;20038;-82
2023/02/23 14:58:28;;;;;;;16.25;9.93;;;;;;;;;;5014028;28;20495;-82
2023/02/23 15:00:57;;;;;;;17.63;10.65;;;;;;;;;;5065731;28;20102;-84
2023/02/23 15:03:27;;;;;;;16.17;10.55;;;;;;;;;;5069947;28;20025;-82
2023/02/23 15:06:05;;;;;;;20.80;12.05;;;;;;;;;;5038791;28;20033;-82
2023/02/23 15:08:38;;;;;;;19.45;9.55;;;;;;;;;;5046773;28;20028;-83
2023/02/23 15:11:18;;;;;;;16.30;10.45;;;;;;;;;;5054579;28;20053;-81
2023/02/23 15:13:54;;;;;;;18.65;11.02;;;;;;;;;;5036720;28;20095;-81
2023/02/23 15:16:47;;;;;;;18.95;9.95;;;;;;;;;;5052562;28;20017;-81
2023/02/23 15:19:28;;;;;;;18.73;10.88;;;;;;;;;;5037324;28;20112;-81
2023/02/23 15:21:59;;;;;;;15.60;9.38;;;;;;;;;;5036264;28;20029;-81
2023/02/23 15:24:30;;;;;;;18.60;10.48;;;;;;;;;;4996246;28;20152;-82
2023/02/23 15:26:57;;;;;;;16.50;11.23;;;;;;;;;;5005610;28;20037;-82
2023/02/23 15:29:38;;;;;;;16.50;10.38;;;;;;;;;;5018402;28;20152;-82
2023/02/23 15:32:24;;;;;;;18.65;10.88;;;;;;;;;;4995934;28;20022;-82
2023/02/23 15:35:01;;;;;;;18.67;11.45;;;;;;;;;;4995726;28;20029;-80
2023/02/23 15:37:38;;;;;;;20.13;11.68;;;;;;;;;;4996221;28;20592;-81
2023/02/23 15:40:06;;;;;;;23.17;12.63;;;;;;;;;;4994165;28;20109;-82
2023/02/23 15:42:36;;;;;;;16.67;11.13;;;;;;;;;;4997881;28;20033;-81
2023/02/23 15:45:28;;;;;;;18.55;10.88;;;;;;;;;;4977260;28;20037;-81
2023/02/23 15:48:06;;;;;;;19.95;11.18;;;;;;;;;;4958882;28;20073;-81
2023/02/23 15:50:40;;;;;;;17.80;11.60;;;;;;;;;;4993985;28;20117;-82
2023/02/23 15:53:13;;;;;;;21.27;11.70;;;;;;;;;;4994280;28;20084;-82
2023/02/23 15:55:50;;;;;;;20.20;11.73;;;;;;;;;;4973874;28;20056;-81
2023/02/23 15:58:48;;;;;;;20.75;12.43;;;;;;;;;;5010599;28;20021;-83
2023/02/23 16:01:31;;;;;;;19.77;11.85;;;;;;;;;;4996230;28;20095;-80
2023/02/23 16:04:04;;;;;;;23.30;12.50;;;;;;;;;;5032844;28;20045;-81
2023/02/23 16:06:35;;;;;;;18.80;12.75;;;;;;;;;;5053548;28;20025;-81
2023/02/23 16:09:24;;;;;;;20.30;12.23;;;;;;;;;;5034256;28;20037;-80
2023/02/23 16:11:52;;;;;;;20.02;12.30;;;;;;;;;;5035483;28;20059;-82
2023/02/23 16:14:26;;;;;;;22.42;13.23;;;;;;;;;;5056112;28;20033;-81
2023/02/23 16:17:00;;;;;;;22.35;12.85;;;;;;;;;;5022885;28;20029;-82
2023/02/23 16:19:31;;;;;;;19.38;12.20;;;;;;;;;;5055589;28;20124;-81
2023/02/23 16:22:02;;;;;;;23.58;12.63;;;;;;;;;;5039809;28;20045;-80
2023/02/23 16:24:31;;;;;;;20.52;12.85;;;;;;;;;;5035766;28;20033;-81
2023/02/23 16:27:01;;;;;;;18.23;11.82;;;;;;;;;;5038052;28;20035;-81
2023/02/23 16:29:35;;;;;;;21.67;13.38;;;;;;;;;;5038244;28;20056;-81
2023/02/23 16:32:09;;;;;;;22.40;13.00;;;;;;;;;;5022689;28;20059;-81
2023/02/23 16:34:47;;;;;;;21.25;12.85;;;;;;;;;;5025204;28;20115;-81
2023/02/23 16:37:43;;;;;;;20.23;11.52;;;;;;;;;;5050718;28;20394;-82
2023/02/23 16:40:14;;;;;;;22.13;12.82;;;;;;;;;;5040541;28;20029;-82
2023/02/23 16:42:48;;;;;;;19.67;11.50;;;;;;;;;;5039804;28;20411;-81
2023/02/23 16:45:18;;;;;;;22.73;12.25;;;;;;;;;;5037101;28;20037;-81
2023/02/23 16:47:51;;;;;;;20.92;12.75;;;;;;;;;;5039708;28;20025;-82
2023/02/23 16:50:39;;;;;;;22.95;13.85;;;;;;;;;;5070583;28;20462;-82
2023/02/23 16:53:15;;;;;;;23.05;13.65;;;;;;;;;;5036934;28;20431;-81